createdAt,value
2019-04-11T00:00:19.498Z,57.79
2019-04-11T00:02:46.825Z,57.54
2019-04-11T00:05:12.991Z,57.07
2019-04-11T00:07:39.088Z,57.19
2019-04-11T00:10:06.253Z,57.89
2019-04-11T00:12:32.671Z,57.60
2019-04-11T00:14:58.702Z,57.77
2019-04-11T00:17:25.864Z,58.00
2019-04-11T00:19:51.999Z,57.37
2019-04-11T00:22:17.991Z,57.46
2019-04-11T00:24:45.157Z,57.93
2019-04-11T00:27:11.262Z,57.80
2019-04-11T00:29:38.546Z,57.73
2019-04-11T00:32:07.430Z,57.72
2019-04-11T00:34:33.142Z,57.64
2019-04-11T00:36:59.253Z,57.77
2019-04-11T00:39:25.817Z,58.34
2019-04-11T00:41:52.380Z,59.11
2019-04-11T00:44:18.825Z,58.42
2019-04-11T00:46:44.979Z,58.72
2019-04-11T00:49:10.995Z,58.94
2019-04-11T00:51:38.066Z,58.74
2019-04-11T00:54:04.719Z,58.25
2019-04-11T00:56:30.905Z,58.51
2019-04-11T00:58:58.193Z,58.68
2019-04-11T01:01:24.542Z,58.75
2019-04-11T01:03:51.543Z,58.59
2019-04-11T01:06:18.287Z,58.50
2019-04-11T01:08:44.501Z,58.86
2019-04-11T01:11:10.627Z,58.67
2019-04-11T01:13:44.741Z,58.18
2019-04-11T01:16:07.015Z,58.60
2019-04-11T01:18:34.011Z,58.57
2019-04-11T01:21:00.451Z,58.64
2019-04-11T01:23:27.126Z,58.83
2019-04-11T01:25:54.843Z,58.79
2019-04-11T01:28:21.282Z,59.00
2019-04-11T01:30:47.407Z,58.74
2019-04-11T01:33:13.432Z,58.70
2019-04-11T01:35:39.555Z,58.76
2019-04-11T01:38:06.261Z,59.10
2019-04-11T01:40:32.420Z,58.59
2019-04-11T01:42:59.625Z,58.61
2019-04-11T01:45:25.795Z,58.96
2019-04-11T01:47:53.139Z,58.54
2019-04-11T01:50:19.253Z,59.00
2019-04-11T01:52:45.309Z,59.52
2019-04-11T01:55:12.286Z,59.81
2019-04-11T01:57:38.570Z,59.01
2019-04-11T02:00:06.020Z,59.32
2019-04-11T02:02:32.704Z,59.22
2019-04-11T02:04:58.867Z,59.90
2019-04-11T02:07:25.424Z,59.68
2019-04-11T02:09:52.566Z,59.99
2019-04-11T02:12:19.798Z,60.46
2019-04-11T02:14:47.912Z,60.82
2019-04-11T02:17:14.714Z,61.54
2019-04-11T02:19:40.761Z,62.12
2019-04-11T02:22:07.846Z,62.48
2019-04-11T02:24:36.199Z,62.70
2019-04-11T02:27:03.007Z,62.71
2019-04-11T02:29:29.810Z,63.10
2019-04-11T02:31:57.383Z,63.30
2019-04-11T02:34:25.313Z,63.84
2019-04-11T02:36:53.569Z,64.13
2019-04-11T02:39:20.905Z,63.50
2019-04-11T02:41:48.211Z,63.40
2019-04-11T02:44:30.651Z,62.63
2019-04-11T02:46:50.358Z,61.97
2019-04-11T02:49:10.814Z,61.31
2019-04-11T02:51:38.719Z,61.30
2019-04-11T02:54:06.791Z,61.22
2019-04-11T02:56:34.085Z,61.23
2019-04-11T02:59:02.260Z,62.07
2019-04-11T03:01:29.469Z,62.39
2019-04-11T03:03:57.003Z,62.38
2019-04-11T03:06:25.684Z,62.25
2019-04-11T03:08:53.087Z,62.57
2019-04-11T03:11:21.488Z,62.46
2019-04-11T03:13:52.658Z,62.95
2019-04-11T03:16:32.755Z,63.07
2019-04-11T03:19:08.119Z,63.39
2019-04-11T03:21:20.325Z,64.54
2019-04-11T03:23:44.075Z,64.99
2019-04-11T03:26:12.408Z,65.31
2019-04-11T03:28:42.484Z,65.98
2019-04-11T03:31:42.052Z,66.18
2019-04-11T03:38:58.198Z,64.54
2019-04-11T03:41:17.328Z,65.24
2019-04-11T03:43:39.482Z,65.32
2019-04-11T03:46:16.337Z,66.11
2019-04-11T03:48:37.472Z,66.01
2019-04-11T03:50:56.698Z,66.40
2019-04-11T03:53:23.798Z,66.50
2019-04-11T03:55:49.593Z,66.55
2019-04-11T03:58:17.384Z,66.78
2019-04-11T04:00:44.618Z,66.96
2019-04-11T04:03:13.626Z,66.12
2019-04-11T04:05:42.038Z,66.18
2019-04-11T04:08:10.857Z,65.55
2019-04-11T04:10:37.490Z,64.91
2019-04-11T04:13:05.368Z,64.26
2019-04-11T04:15:47.194Z,63.84
2019-04-11T04:18:01.058Z,63.72
2019-04-11T04:20:28.874Z,63.33
2019-04-11T04:22:56.680Z,63.78
2019-04-11T04:25:24.310Z,64.54
2019-04-11T04:27:51.282Z,65.04
2019-04-11T04:30:18.174Z,65.09
2019-04-11T04:32:47.269Z,65.42
2019-04-11T04:35:17.654Z,65.30
2019-04-11T04:37:43.433Z,65.91
2019-04-11T04:40:28.390Z,65.78
2019-04-11T04:42:44.508Z,66.21
2019-04-11T04:45:07.943Z,67.31
2019-04-11T04:47:42.207Z,68.24
2019-04-11T04:50:06.398Z,69.12
2019-04-11T04:52:33.943Z,69.14
2019-04-11T04:55:02.210Z,69.15
2019-04-11T04:57:29.742Z,67.92
2019-04-11T04:59:57.733Z,67.27
2019-04-11T05:02:26.002Z,66.18
2019-04-11T05:04:52.252Z,65.23
2019-04-11T05:07:19.433Z,64.71
2019-04-11T05:09:45.906Z,64.74
2019-04-11T05:12:12.178Z,64.43
2019-04-11T05:14:39.355Z,64.21
2019-04-11T05:17:06.754Z,63.30
2019-04-11T05:19:34.030Z,62.56
2019-04-11T05:22:00.271Z,62.72
2019-04-11T05:24:26.424Z,62.49
2019-04-11T05:26:52.611Z,62.85
2019-04-11T05:29:19.570Z,61.76
2019-04-11T05:31:45.711Z,59.91
2019-04-11T05:34:11.910Z,58.27
2019-04-11T05:36:38.720Z,57.71
2019-04-11T05:39:06.641Z,54.72
2019-04-11T05:41:33.554Z,52.64
2019-04-11T05:44:03.399Z,52.41
2019-04-11T05:46:35.237Z,51.32
2019-04-11T05:49:00.492Z,51.06
2019-04-11T05:51:24.723Z,51.39
2019-04-11T05:53:52.896Z,50.44
2019-04-11T05:56:20.330Z,49.12
2019-04-11T05:58:47.503Z,49.88
2019-04-11T06:01:14.587Z,47.05
2019-04-11T06:03:43.661Z,45.07
2019-04-11T06:06:10.833Z,45.34
2019-04-11T06:08:37.837Z,45.66
2019-04-11T06:11:05.760Z,44.45
2019-04-11T06:13:32.269Z,43.56
2019-04-11T06:16:01.383Z,42.04
2019-04-11T06:18:32.270Z,42.26
2019-04-11T06:20:55.670Z,42.52
2019-04-11T06:23:21.650Z,44.48
2019-04-11T06:25:49.202Z,41.84
2019-04-11T06:28:15.311Z,41.97
2019-04-11T06:30:42.297Z,42.37
2019-04-11T06:33:08.599Z,42.83
2019-04-11T06:35:35.791Z,43.39
2019-04-11T06:38:02.627Z,45.10
2019-04-11T06:40:29.251Z,45.78
2019-04-11T06:42:56.007Z,48.91
2019-04-11T06:45:22.247Z,49.41
2019-04-11T06:47:49.216Z,48.58
2019-04-11T06:50:15.312Z,50.07
2019-04-11T06:52:41.329Z,51.79
2019-04-11T06:55:13.146Z,51.22
2019-04-11T06:57:48.059Z,49.69
2019-04-11T07:00:16.984Z,49.21
2019-04-11T07:02:44.470Z,50.06
2019-04-11T07:05:10.957Z,51.15
2019-04-11T07:07:37.767Z,52.69
2019-04-11T07:10:06.245Z,52.51
2019-04-11T07:12:32.964Z,51.68
2019-04-11T07:15:00.172Z,51.36
2019-04-11T07:17:27.478Z,50.20
2019-04-11T07:19:53.751Z,51.50
2019-04-11T07:22:20.938Z,50.33
2019-04-11T07:24:47.457Z,50.27
2019-04-11T07:27:13.772Z,49.71
2019-04-11T07:29:40.112Z,50.84
2019-04-11T07:32:06.248Z,49.30
2019-04-11T07:34:33.984Z,50.12
2019-04-11T07:37:00.281Z,51.27
2019-04-11T07:39:26.567Z,49.09
2019-04-11T07:41:52.685Z,49.77
2019-04-11T07:44:19.617Z,48.92
2019-04-11T07:46:45.730Z,48.63
2019-04-11T07:49:12.122Z,48.35
2019-04-11T07:51:38.616Z,47.08
2019-04-11T07:54:05.231Z,48.21
2019-04-11T07:56:31.460Z,49.02
2019-04-11T07:58:58.542Z,46.55
2019-04-11T08:01:24.947Z,49.12
2019-04-11T08:03:51.281Z,47.95
2019-04-11T08:06:17.392Z,48.42
2019-04-11T08:08:43.426Z,46.72
2019-04-11T08:11:09.608Z,48.51
2019-04-11T08:13:36.811Z,46.13
2019-04-11T08:16:04.299Z,45.61
2019-04-11T08:18:30.373Z,45.94
2019-04-11T08:20:57.438Z,45.66
2019-04-11T08:23:23.654Z,46.41
2019-04-11T08:25:49.672Z,45.60
2019-04-11T08:28:16.381Z,47.75
2019-04-11T08:30:43.321Z,44.43
2019-04-11T08:33:10.732Z,45.70
2019-04-11T08:35:36.937Z,45.01
2019-04-11T08:38:04.529Z,44.91
2019-04-11T08:40:33.609Z,41.71
2019-04-11T08:42:59.814Z,41.15
2019-04-11T08:45:25.862Z,41.93
2019-04-11T08:47:55.640Z,40.70
2019-04-11T08:50:20.646Z,42.64
2019-04-11T08:52:46.978Z,44.69
2019-04-11T08:55:15.942Z,43.54
2019-04-11T08:57:41.562Z,45.76
2019-04-11T09:00:11.131Z,44.88
2019-04-11T09:02:37.420Z,44.95
2019-04-11T09:05:13.113Z,44.06
2019-04-11T09:07:33.800Z,45.79
2019-04-11T09:10:00.027Z,45.67
2019-04-11T09:12:26.815Z,46.76
2019-04-11T09:14:53.012Z,42.44
2019-04-11T09:17:20.997Z,43.61
2019-04-11T09:19:47.355Z,44.21
2019-04-11T09:22:13.584Z,45.12
2019-04-11T09:24:40.950Z,43.39
2019-04-11T09:27:08.668Z,43.88
2019-04-11T09:29:34.824Z,45.23
2019-04-11T09:32:02.155Z,46.12
2019-04-11T09:34:28.417Z,44.83
2019-04-11T09:36:55.433Z,44.27
2019-04-11T09:39:21.473Z,44.77
2019-04-11T09:41:47.599Z,47.04
2019-04-11T09:44:14.656Z,44.53
2019-04-11T09:46:41.279Z,43.79
2019-04-11T09:49:08.599Z,44.17
2019-04-11T09:51:35.878Z,44.93
2019-04-11T09:54:03.577Z,43.02
2019-04-11T09:56:29.774Z,40.95
2019-04-11T09:58:56.105Z,42.38
2019-04-11T10:01:22.425Z,42.92
2019-04-11T10:03:48.686Z,41.60
2019-04-11T10:06:15.900Z,42.30
2019-04-11T10:08:41.980Z,41.39
2019-04-11T10:11:08.100Z,40.46
2019-04-11T10:13:35.492Z,41.44
2019-04-11T10:16:02.055Z,45.14
2019-04-11T10:18:33.728Z,41.96
2019-04-11T10:20:57.127Z,40.00
2019-04-11T10:23:23.399Z,39.12
2019-04-11T10:25:49.740Z,40.51
2019-04-11T10:28:15.807Z,41.74
2019-04-11T10:30:42.018Z,41.68
2019-04-11T10:33:08.760Z,42.16
2019-04-11T10:35:35.042Z,43.49
2019-04-11T10:38:02.319Z,41.11
2019-04-11T10:40:28.320Z,43.46
2019-04-11T10:42:54.448Z,44.50
2019-04-11T10:45:20.703Z,41.72
2019-04-11T10:47:47.305Z,43.33
2019-04-11T10:50:13.533Z,42.81
2019-04-11T10:52:39.673Z,42.38
2019-04-11T10:55:06.286Z,42.94
2019-04-11T10:57:32.322Z,42.41
2019-04-11T10:59:58.685Z,42.93
2019-04-11T11:02:25.187Z,45.08
2019-04-11T11:04:52.572Z,43.05
2019-04-11T11:07:18.869Z,41.73
2019-04-11T11:09:46.203Z,41.01
2019-04-11T11:12:12.741Z,45.80
2019-04-11T11:14:38.883Z,42.01
2019-04-11T11:17:05.217Z,43.63
2019-04-11T11:19:48.758Z,41.13
2019-04-11T11:22:00.431Z,42.26
2019-04-11T11:24:28.234Z,44.08
2019-04-11T11:26:56.726Z,44.08
2019-04-11T11:29:22.387Z,42.74
2019-04-11T11:31:49.197Z,41.80
2019-04-11T11:34:19.298Z,42.11
2019-04-11T11:36:43.746Z,42.78
2019-04-11T11:39:10.852Z,45.36
2019-04-11T11:41:37.004Z,41.12
2019-04-11T11:44:09.732Z,42.61
2019-04-11T11:46:45.234Z,41.62
2019-04-11T11:49:14.098Z,38.69
2019-04-11T11:51:41.540Z,38.58
2019-04-11T11:54:07.562Z,39.20
2019-04-11T11:56:34.009Z,42.33
2019-04-11T11:59:01.093Z,40.46
2019-04-11T12:01:27.443Z,39.12
2019-04-11T12:03:55.402Z,40.85
2019-04-11T12:06:23.556Z,39.35
2019-04-11T12:08:51.335Z,38.74
2019-04-11T12:11:17.851Z,37.16
2019-04-11T12:13:45.302Z,39.11
2019-04-11T12:16:15.920Z,38.35
2019-04-11T12:18:44.981Z,38.72
2019-04-11T12:21:07.772Z,39.93
2019-04-11T12:23:46.263Z,40.33
2019-04-11T12:26:01.765Z,39.82
2019-04-11T12:28:27.915Z,40.90
2019-04-11T12:30:57.966Z,40.46
2019-04-11T12:33:22.082Z,37.87
2019-04-11T12:35:48.632Z,37.79
2019-04-11T12:38:15.051Z,37.75
2019-04-11T12:40:41.072Z,37.55
2019-04-11T12:43:07.259Z,37.34
2019-04-11T12:45:33.335Z,37.20
2019-04-11T12:47:59.347Z,37.26
2019-04-11T12:50:25.310Z,38.17
2019-04-11T12:52:51.260Z,37.75
2019-04-11T12:55:17.448Z,38.94
2019-04-11T12:57:43.547Z,39.77
2019-04-11T13:00:09.680Z,38.68
2019-04-11T13:02:35.795Z,40.33
2019-04-11T13:05:03.139Z,36.37
2019-04-11T13:07:29.133Z,36.24
2019-04-11T13:09:55.187Z,35.85
2019-04-11T13:12:21.311Z,40.10
2019-04-11T13:14:47.381Z,40.21
2019-04-11T13:17:13.458Z,39.97
2019-04-11T13:19:39.483Z,39.54
2019-04-11T13:22:05.709Z,35.90
2019-04-11T13:24:31.646Z,37.40
2019-04-11T13:26:57.754Z,38.17
2019-04-11T13:29:23.794Z,38.57
2019-04-11T13:31:49.905Z,40.65
2019-04-11T13:34:15.944Z,40.43
2019-04-11T13:36:42.056Z,41.72
2019-04-11T13:39:08.176Z,40.02
2019-04-11T13:41:34.209Z,40.59
2019-04-11T13:44:00.224Z,41.03
2019-04-11T13:46:26.449Z,40.79
2019-04-11T13:48:52.475Z,39.85
2019-04-11T13:51:18.598Z,39.46
2019-04-11T13:53:44.723Z,39.96
2019-04-11T13:56:10.976Z,37.80
2019-04-11T13:58:36.997Z,36.66
2019-04-11T14:01:03.403Z,38.30
2019-04-11T14:03:29.343Z,38.03
2019-04-11T14:05:55.343Z,41.21
2019-04-11T14:08:21.354Z,40.62
2019-04-11T14:10:47.618Z,41.00
2019-04-11T14:13:14.233Z,42.28
2019-04-11T14:15:40.697Z,41.47
2019-04-11T14:18:07.066Z,41.76
2019-04-11T14:20:33.120Z,42.74
2019-04-11T14:22:59.450Z,42.26
2019-04-11T14:25:25.570Z,41.33
2019-04-11T14:27:52.106Z,41.35
2019-04-11T14:30:18.588Z,42.98
2019-04-11T14:32:45.278Z,42.33
2019-04-11T14:35:11.503Z,43.07
2019-04-11T14:37:38.827Z,40.58
2019-04-11T14:40:10.687Z,41.54
2019-04-11T14:42:34.800Z,41.89
2019-04-11T14:45:00.816Z,41.54
2019-04-11T14:47:26.840Z,42.58
2019-04-11T14:49:52.867Z,43.45
2019-04-11T14:52:19.195Z,42.05
2019-04-11T14:54:48.895Z,43.99
2019-04-11T14:57:13.603Z,44.82
2019-04-11T14:59:39.617Z,42.48
2019-04-11T15:02:05.741Z,43.23
2019-04-11T15:04:31.765Z,44.57
2019-04-11T15:06:57.889Z,42.72
2019-04-11T15:09:24.423Z,43.22
2019-04-11T15:11:50.451Z,43.01
2019-04-11T15:14:17.677Z,44.51
2019-04-11T15:16:44.442Z,43.56
2019-04-11T15:19:10.470Z,43.01
2019-04-11T15:21:36.991Z,43.55
2019-04-11T15:24:03.147Z,42.79
2019-04-11T15:26:29.242Z,42.04
2019-04-11T15:28:56.914Z,43.18
2019-04-11T15:31:23.145Z,43.72
2019-04-11T15:33:49.259Z,42.21
2019-04-11T15:36:16.102Z,42.02
2019-04-11T15:38:42.121Z,42.34
2019-04-11T15:41:08.246Z,42.92
2019-04-11T15:43:34.203Z,43.38
2019-04-11T15:46:01.344Z,43.26
2019-04-11T15:48:27.544Z,44.46
2019-04-11T15:50:53.672Z,44.77
2019-04-11T15:53:19.694Z,45.08
2019-04-11T15:55:45.710Z,44.83
2019-04-11T15:58:12.787Z,43.51
2019-04-11T16:00:39.297Z,44.06
2019-04-11T16:03:05.321Z,44.10
2019-04-11T16:05:32.202Z,44.32
2019-04-11T16:07:58.805Z,44.63
2019-04-11T16:10:24.733Z,43.04
2019-04-11T16:12:50.843Z,43.48
2019-04-11T16:15:16.899Z,43.21
2019-04-11T16:17:44.648Z,44.49
2019-04-11T16:20:11.165Z,43.06
2019-04-11T16:22:37.153Z,43.68
2019-04-11T16:25:04.944Z,42.81
2019-04-11T16:27:31.003Z,42.97
2019-04-11T16:29:57.298Z,43.91
2019-04-11T16:32:23.456Z,44.92
2019-04-11T16:34:54.486Z,44.88
2019-04-11T16:37:18.448Z,44.42
2019-04-11T16:39:44.575Z,43.71
2019-04-11T16:42:10.592Z,44.67
2019-04-11T16:44:36.519Z,44.52
2019-04-11T16:47:03.039Z,43.15
2019-04-11T16:49:29.065Z,44.50
2019-04-11T16:51:55.192Z,44.18
2019-04-11T16:54:21.223Z,43.87
2019-04-11T16:56:47.445Z,43.69
2019-04-11T16:59:13.464Z,44.17
2019-04-11T17:01:39.633Z,45.82
2019-04-11T17:04:05.669Z,44.53
2019-04-11T17:06:31.733Z,44.92
2019-04-11T17:08:57.958Z,45.10
2019-04-11T17:11:26.718Z,43.95
2019-04-11T17:13:51.850Z,42.95
2019-04-11T17:16:17.977Z,44.47
2019-04-11T17:18:43.999Z,44.47
2019-04-11T17:21:10.150Z,44.25
2019-04-11T17:23:36.143Z,43.82
2019-04-11T17:26:02.174Z,44.62
2019-04-11T17:28:28.193Z,44.11
2019-04-11T17:30:55.731Z,44.84
2019-04-11T17:33:21.874Z,46.33
2019-04-11T17:35:48.101Z,45.55
2019-04-11T17:38:14.158Z,46.02
2019-04-11T17:40:40.253Z,45.37
2019-04-11T17:43:06.250Z,46.19
2019-04-11T17:45:32.394Z,46.57
2019-04-11T17:48:00.468Z,46.94
2019-04-11T17:50:26.592Z,46.64
2019-04-11T17:52:54.729Z,46.52
2019-04-11T17:55:23.629Z,46.01
2019-04-11T17:57:48.911Z,45.85
2019-04-11T18:00:15.496Z,46.95
2019-04-11T18:02:42.133Z,45.79
2019-04-11T18:05:08.666Z,46.43
2019-04-11T18:07:34.892Z,45.95
2019-04-11T18:10:01.345Z,46.72
2019-04-11T18:12:27.449Z,46.65
2019-04-11T18:14:53.676Z,46.18
2019-04-11T18:17:19.909Z,46.50
2019-04-11T18:19:45.871Z,47.29
2019-04-11T18:22:13.785Z,47.54
2019-04-11T18:24:40.225Z,48.35
2019-04-11T18:27:06.262Z,47.08
2019-04-11T18:29:32.268Z,47.67
2019-04-11T18:31:58.331Z,48.29
2019-04-11T18:34:24.520Z,47.74
2019-04-11T18:36:50.648Z,48.07
2019-04-11T18:39:16.872Z,47.91
2019-04-11T18:41:42.894Z,48.76
2019-04-11T18:44:09.122Z,48.69
2019-04-11T18:46:35.448Z,48.82
2019-04-11T18:49:01.473Z,48.77
2019-04-11T18:51:30.268Z,49.03
2019-04-11T18:53:55.463Z,49.01
2019-04-11T18:56:21.490Z,49.56
2019-04-11T18:58:47.510Z,47.96
2019-04-11T19:01:17.840Z,49.70
2019-04-11T19:03:43.210Z,49.03
2019-04-11T19:06:12.853Z,49.50
2019-04-11T19:08:37.475Z,49.37
2019-04-11T19:11:03.662Z,48.77
2019-04-11T19:13:30.094Z,49.34
2019-04-11T19:15:56.116Z,49.06
2019-04-11T19:18:22.244Z,49.34
2019-04-11T19:20:50.335Z,49.82
2019-04-11T19:23:16.542Z,49.19
2019-04-11T19:25:45.102Z,49.32
2019-04-11T19:28:12.196Z,50.42
2019-04-11T19:30:38.397Z,49.75
2019-04-11T19:33:04.440Z,50.13
2019-04-11T19:35:30.452Z,49.82
2019-04-11T19:37:56.373Z,49.67
2019-04-11T19:40:22.385Z,49.20
2019-04-11T19:42:49.225Z,49.30
2019-04-11T19:45:16.915Z,49.05
2019-04-11T19:47:43.938Z,48.78
2019-04-11T19:50:10.165Z,49.42
2019-04-11T19:52:45.251Z,49.87
2019-04-11T19:55:05.456Z,49.30
2019-04-11T19:57:32.016Z,49.06
2019-04-11T19:59:57.977Z,49.59
2019-04-11T20:02:26.110Z,49.66
2019-04-11T20:04:52.133Z,49.50
2019-04-11T20:07:19.186Z,48.15
2019-04-11T20:09:45.410Z,49.52
2019-04-11T20:12:11.439Z,48.41
2019-04-11T20:14:37.459Z,48.51
2019-04-11T20:17:03.526Z,48.56
2019-04-11T20:19:29.702Z,48.93
2019-04-11T20:21:55.727Z,49.06
2019-04-11T20:24:21.746Z,49.27
2019-04-11T20:26:50.174Z,48.77
2019-04-11T20:29:15.741Z,48.49
2019-04-11T20:31:41.901Z,47.32
2019-04-11T20:34:08.298Z,47.85
2019-04-11T20:36:34.531Z,47.94
2019-04-11T20:39:00.750Z,47.71
2019-04-11T20:41:26.813Z,47.38
2019-04-11T20:43:55.969Z,48.21
2019-04-11T20:46:20.779Z,48.03
2019-04-11T20:48:46.794Z,47.58
2019-04-11T20:51:13.117Z,48.75
2019-04-11T20:53:39.137Z,49.40
2019-04-11T20:56:09.715Z,48.79
2019-04-11T20:58:33.454Z,48.79
2019-04-11T21:00:59.641Z,48.71
2019-04-11T21:03:29.865Z,47.62
2019-04-11T21:05:53.662Z,48.06
2019-04-11T21:08:19.935Z,48.00
2019-04-11T21:10:46.006Z,47.79
2019-04-11T21:13:12.131Z,48.57
2019-04-11T21:15:38.375Z,48.87
2019-04-11T21:18:04.379Z,48.49
2019-04-11T21:20:30.819Z,49.26
2019-04-11T21:22:56.944Z,49.42
2019-04-11T21:25:22.962Z,48.70
2019-04-11T21:27:49.290Z,49.28
2019-04-11T21:30:15.516Z,49.63
2019-04-11T21:32:41.546Z,50.34
2019-04-11T21:35:09.814Z,49.52
2019-04-11T21:37:36.839Z,50.15
2019-04-11T21:40:04.828Z,50.23
2019-04-11T21:42:31.200Z,50.25
2019-04-11T21:44:57.282Z,50.24
2019-04-11T21:47:23.210Z,51.22
2019-04-11T21:49:49.227Z,51.47
2019-04-11T21:52:15.248Z,51.90
2019-04-11T21:54:45.035Z,50.95
2019-04-11T21:57:09.138Z,52.07
2019-04-11T21:59:35.411Z,52.50
2019-04-11T22:02:03.261Z,52.12
2019-04-11T22:04:31.102Z,52.10
2019-04-11T22:07:00.735Z,52.90
2019-04-11T22:09:25.304Z,52.43
2019-04-11T22:11:51.521Z,53.00
2019-04-11T22:14:17.541Z,52.84
2019-04-11T22:16:45.118Z,52.75
2019-04-11T22:19:13.955Z,52.30
2019-04-11T22:21:39.295Z,53.15
2019-04-11T22:24:05.315Z,52.94
2019-04-11T22:26:31.342Z,52.63
2019-04-11T22:28:57.361Z,53.02
2019-04-11T22:31:25.029Z,52.93
2019-04-11T22:33:51.275Z,52.33
2019-04-11T22:36:17.584Z,52.39
2019-04-11T22:38:43.605Z,53.05
2019-04-11T22:41:09.625Z,52.64
2019-04-11T22:43:37.881Z,52.64
2019-04-11T22:46:07.741Z,52.27
2019-04-11T22:48:31.445Z,52.48
2019-04-11T22:50:57.501Z,53.18
2019-04-11T22:53:23.603Z,53.72
2019-04-11T22:55:49.702Z,53.85
2019-04-11T22:58:15.775Z,53.79
2019-04-11T23:00:45.136Z,54.41
2019-04-11T23:03:09.765Z,54.81
2019-04-11T23:05:35.792Z,55.25
2019-04-11T23:08:02.923Z,55.00
2019-04-11T23:10:29.165Z,55.27
2019-04-11T23:12:55.189Z,55.68
2019-04-11T23:15:21.316Z,55.63
2019-04-11T23:17:47.335Z,56.23
2019-04-11T23:20:14.369Z,56.71
2019-04-11T23:22:42.798Z,55.34
2019-04-11T23:25:09.612Z,55.96
2019-04-11T23:27:35.568Z,56.01
2019-04-11T23:30:02.773Z,55.54
2019-04-11T23:32:28.895Z,55.46
2019-04-11T23:34:55.809Z,56.01
2019-04-11T23:37:21.815Z,55.20
2019-04-11T23:39:47.794Z,55.68
2019-04-11T23:42:13.862Z,55.91
2019-04-11T23:44:39.929Z,56.56
2019-04-11T23:47:05.952Z,56.83
2019-04-11T23:49:31.976Z,57.06
2019-04-11T23:51:57.899Z,56.20
2019-04-11T23:54:23.871Z,55.90
2019-04-11T23:56:49.840Z,55.52
2019-04-11T23:59:15.962Z,55.60
